createdAt,value
2023-03-23T15:59:42.756Z,2.13
2023-03-23T16:02:19.463Z,2.50
2023-03-23T16:04:49.105Z,3.50
2023-03-23T16:07:24.612Z,3.30
2023-03-23T16:09:52.556Z,2.57
2023-03-23T16:12:20.638Z,4.10
2023-03-23T16:14:48.641Z,4.93
2023-03-23T16:17:21.542Z,3.87
2023-03-23T16:19:51.031Z,4.03
2023-03-23T16:22:18.996Z,3.00
2023-03-23T16:24:47.256Z,4.00
2023-03-23T16:27:15.682Z,3.00
2023-03-23T16:30:02.130Z,4.30
2023-03-23T16:32:31.811Z,4.40
2023-03-23T16:35:01.142Z,4.67
2023-03-23T16:37:33.192Z,5.10
2023-03-23T16:40:01.498Z,2.80
2023-03-23T16:42:29.746Z,2.67
2023-03-23T16:44:57.841Z,3.20
2023-03-23T16:47:26.348Z,6.70
2023-03-23T16:49:54.851Z,2.93
2023-03-23T16:52:24.320Z,4.40
2023-03-23T16:54:52.386Z,8.90
2023-03-23T16:57:20.901Z,7.00
2023-03-23T16:59:49.072Z,5.23
2023-03-23T17:02:17.032Z,5.40
2023-03-23T17:04:46.220Z,3.60
2023-03-23T17:07:15.138Z,3.53
2023-03-23T17:09:44.431Z,9.53
2023-03-23T17:12:12.433Z,4.50
2023-03-23T17:14:40.413Z,3.63
2023-03-23T17:17:10.100Z,3.10
2023-03-23T17:19:38.287Z,5.23
2023-03-23T17:22:06.320Z,4.70
2023-03-23T17:24:34.269Z,3.90
2023-03-23T17:27:03.530Z,6.50
2023-03-23T17:29:31.583Z,5.70
2023-03-23T17:31:59.540Z,6.63
2023-03-23T17:34:27.468Z,6.13
2023-03-23T17:36:55.413Z,5.37
2023-03-23T17:39:23.494Z,4.90
2023-03-23T17:41:51.509Z,6.13
2023-03-23T17:44:21.078Z,6.50
2023-03-23T17:46:49.121Z,10.30
2023-03-23T17:49:17.524Z,10.97
2023-03-23T17:51:45.703Z,8.20
2023-03-23T17:54:13.998Z,6.63
2023-03-23T17:56:42.086Z,6.00
2023-03-23T17:59:10.133Z,7.20
2023-03-23T18:01:39.583Z,7.20
2023-03-23T18:04:07.814Z,8.07
2023-03-23T18:06:35.975Z,5.33
2023-03-23T18:09:05.590Z,8.43
2023-03-23T18:11:33.626Z,6.55
2023-03-23T18:14:02.002Z,6.60
2023-03-23T18:16:30.252Z,4.73
2023-03-23T18:18:59.924Z,4.90
2023-03-23T18:21:28.464Z,6.37
2023-03-23T18:23:59.540Z,8.07
2023-03-23T18:26:29.632Z,12.90
2023-03-23T18:28:57.693Z,8.27
2023-03-23T18:31:25.985Z,3.90
2023-03-23T18:33:55.199Z,5.53
2023-03-23T18:36:27.460Z,6.20
2023-03-23T18:38:57.759Z,8.13
2023-03-23T18:41:26.725Z,7.20
2023-03-23T18:43:56.366Z,4.50
2023-03-23T18:46:25.867Z,5.30
2023-03-23T18:48:54.002Z,7.10
2023-03-23T18:51:22.073Z,6.90
2023-03-23T18:53:51.471Z,7.50
2023-03-23T18:56:20.347Z,11.20
2023-03-23T18:58:48.438Z,6.80
2023-03-23T19:01:18.309Z,4.57
2023-03-23T19:03:47.240Z,4.30
2023-03-23T19:06:17.695Z,3.90
2023-03-23T19:08:46.110Z,4.70
2023-03-23T19:11:16.372Z,4.40
2023-03-23T19:13:58.493Z,3.70
2023-03-23T19:16:30.974Z,3.10
2023-03-23T19:18:59.360Z,3.30
2023-03-23T19:21:29.834Z,3.57
2023-03-23T19:23:58.604Z,3.57
2023-03-23T19:26:32.590Z,3.53
2023-03-23T19:31:33.127Z,3.37
2023-03-23T19:34:01.543Z,3.30
2023-03-23T19:36:29.727Z,3.90
2023-03-23T19:38:58.400Z,3.00
2023-03-23T19:41:33.243Z,3.00
2023-03-23T19:44:03.532Z,3.80
2023-03-23T19:46:32.282Z,3.60
2023-03-23T19:49:01.328Z,3.90
2023-03-23T19:51:29.612Z,2.90
2023-03-23T19:53:58.676Z,3.30
2023-03-23T19:56:28.936Z,3.07
2023-03-23T19:58:58.695Z,3.47
2023-03-23T20:01:26.654Z,3.43
2023-03-23T20:03:59.256Z,3.27
2023-03-23T20:06:29.186Z,4.10
2023-03-23T20:09:00.143Z,4.43
2023-03-23T20:11:29.464Z,4.20
2023-03-23T20:13:59.141Z,4.20
2023-03-23T20:16:27.404Z,4.70
2023-03-23T20:18:59.665Z,4.70
2023-03-23T20:21:28.743Z,4.80
2023-03-23T20:23:58.752Z,12.00
2023-03-23T20:26:29.494Z,7.00
2023-03-23T20:28:59.232Z,4.30
2023-03-23T20:31:29.443Z,3.93
2023-03-23T20:34:01.900Z,3.83
2023-03-23T20:36:34.534Z,3.50
2023-03-23T20:39:05.055Z,6.10
2023-03-23T20:41:35.809Z,6.57
2023-03-23T20:44:06.932Z,4.90
2023-03-23T20:46:36.504Z,3.80
2023-03-23T20:49:05.229Z,3.87
2023-03-23T20:51:33.538Z,3.93
2023-03-23T20:54:01.885Z,3.70
2023-03-23T20:56:29.862Z,3.37
2023-03-23T20:58:57.848Z,4.10
2023-03-23T21:01:27.377Z,3.80
2023-03-23T21:03:57.031Z,3.90
2023-03-23T21:06:28.120Z,3.77
2023-03-23T21:08:57.052Z,3.77
2023-03-23T21:11:27.187Z,3.90
2023-03-23T21:13:55.675Z,3.33
2023-03-23T21:16:25.260Z,3.30
2023-03-23T21:18:54.891Z,3.20
2023-03-23T21:21:23.280Z,3.23
2023-03-23T21:23:53.179Z,3.57
2023-03-23T21:26:23.467Z,3.20
2023-03-23T21:28:54.097Z,4.03
2023-03-23T21:31:26.347Z,4.10
2023-03-23T21:33:56.046Z,4.33
2023-03-23T21:36:24.628Z,5.00
2023-03-23T21:38:52.818Z,4.37
2023-03-23T21:41:21.156Z,4.93
2023-03-23T21:43:50.005Z,4.43
2023-03-23T21:46:19.181Z,4.00
2023-03-23T21:48:50.745Z,4.13
2023-03-23T21:51:23.256Z,4.20
2023-03-23T21:53:53.989Z,4.20
2023-03-23T21:56:23.404Z,4.50
2023-03-23T21:58:51.777Z,4.70
2023-03-23T22:01:19.821Z,4.50
2023-03-23T22:03:47.950Z,3.90
2023-03-23T22:06:18.245Z,3.77
2023-03-23T22:08:49.110Z,4.00
2023-03-23T22:11:19.556Z,4.67
2023-03-23T22:13:48.905Z,5.07
2023-03-23T22:16:18.965Z,3.87
2023-03-23T22:18:48.648Z,4.13
2023-03-23T22:21:17.528Z,5.30
2023-03-23T22:23:47.457Z,4.97
2023-03-23T22:26:16.580Z,4.50
2023-03-23T22:28:46.936Z,5.30
2023-03-23T22:31:18.588Z,6.03
2023-03-23T22:33:47.670Z,4.80
2023-03-23T22:36:16.452Z,5.70
2023-03-23T22:38:48.071Z,5.37
2023-03-23T22:41:18.724Z,6.00
2023-03-23T22:43:47.543Z,5.20
2023-03-23T22:46:16.217Z,4.80
2023-03-23T22:48:44.733Z,5.10
2023-03-23T22:51:14.314Z,6.20
2023-03-23T22:53:42.369Z,5.43
2023-03-23T22:56:13.060Z,5.23
2023-03-23T22:58:41.116Z,4.97
2023-03-23T23:01:12.302Z,5.57
2023-03-23T23:03:41.124Z,5.53
2023-03-23T23:06:11.168Z,7.20
2023-03-23T23:08:39.710Z,5.43
2023-03-23T23:11:10.943Z,6.50
2023-03-23T23:13:41.409Z,6.10
2023-03-23T23:16:11.090Z,5.73
2023-03-23T23:18:40.538Z,5.30
2023-03-23T23:21:11.330Z,5.30
2023-03-23T23:23:39.747Z,5.77
2023-03-23T23:26:08.620Z,5.40
2023-03-23T23:28:37.152Z,7.07
2023-03-23T23:31:18.917Z,5.60
2023-03-23T23:33:47.041Z,5.40
2023-03-23T23:36:15.344Z,5.13
2023-03-23T23:38:43.433Z,5.17
2023-03-23T23:41:11.742Z,5.23
2023-03-23T23:43:39.877Z,5.57
2023-03-23T23:46:09.384Z,5.90
2023-03-23T23:48:37.456Z,6.13
2023-03-23T23:51:06.091Z,5.80
2023-03-23T23:53:34.183Z,5.73
2023-03-23T23:56:03.459Z,5.17
2023-03-23T23:58:31.948Z,5.33
